PWSweather.com
Personal Weather Stations
Station Observations
WARREN
Narre Warren , MelbourneAU

Narre Warren MelbourneAU

Lat: -38.0314269, Lon: 145.3160851

Elevation: 24

Station Type: Digiteck

http://www.aussiedownunder.net/

High Low Average
Temperature 88.0°F31.1°F 57.7°F14.3°F 71.2°F21.8°F
Dew Point 55.5°F13.1°F 51.3°F10.7°F 53.6°F12.0°F
Winds 5.2 mph S8.4 mph S 1.0 mph 1.6 mph 3.0 mph 4.8 mph
Wind Gusts 18.3 mph29.5 mph 4.5 mph7.2 mph 9.6 mph15.4 mph
Humidity 84% 29% 58%
Pressure 30.06 in1017.90 in 29.92 in1013.20 in -
Precipitation 0.20 in5.10 in - -
Hour Temp Dew Point Humidity Winds Wind Gusts Pressure Precip Precip Rate Daily Precip Total
12:00 AM 61.0°F16.1°C 55.5°F13.1°C 82% 4.5 mph SE7.2 kmh SE 13.0 mph20.9 kmh 30.02 in1016.6 mb 0.00 in0.0 mm 0.00 in0.0 mm 0.00 in0.0 mm
12:15 AM 60.8°F16.0°C 55.3°F12.9°C 82% 4.1 mph SE6.6 kmh SE 10.7 mph17.2 kmh 30.03 in1016.9 mb 0.00 in0.0 mm 0.00 in0.0 mm 0.00 in0.0 mm
12:30 AM 60.8°F16.0°C 54.9°F12.7°C 81% 4.2 mph SE6.8 kmh SE 15.9 mph25.6 kmh 30.03 in1016.9 mb 0.00 in0.0 mm 0.00 in0.0 mm 0.00 in0.0 mm
12:45 AM 60.8°F16.0°C 54.9°F12.7°C 81% 3.8 mph SE6.1 kmh SE 13.6 mph21.9 kmh 30.04 in1017.3 mb 0.00 in0.0 mm 0.00 in0.0 mm 0.00 in0.0 mm
01:00 AM 60.8°F16.0°C 54.6°F12.6°C 80% 4.0 mph SE6.4 kmh SE 11.4 mph18.3 kmh 30.04 in1017.3 mb 0.00 in0.0 mm 0.00 in0.0 mm 0.00 in0.0 mm
01:15 AM 60.8°F16.0°C 54.3°F12.4°C 79% 4.9 mph SE7.9 kmh SE 10.7 mph17.2 kmh 30.03 in1016.9 mb 0.00 in0.0 mm 0.00 in0.0 mm 0.00 in0.0 mm
01:30 AM 60.6°F15.9°C 54.8°F12.7°C 81% 5.1 mph SE8.2 kmh SE 15.2 mph24.5 kmh 30.02 in1016.6 mb 0.00 in0.0 mm 0.00 in0.0 mm 0.00 in0.0 mm
01:45 AM 60.3°F15.7°C 55.1°F12.8°C 83% 5.2 mph S8.4 kmh S 13.0 mph20.9 kmh 30.02 in1016.6 mb 0.00 in0.0 mm 0.00 in0.0 mm 0.00 in0.0 mm
02:00 AM 60.3°F15.7°C 54.8°F12.7°C 82% 4.9 mph S7.9 kmh S 18.3 mph29.5 kmh 30.02 in1016.6 mb 0.00 in0.0 mm 0.00 in0.0 mm 0.00 in0.0 mm
02:15 AM 60.3°F15.7°C 54.4°F12.4°C 81% 5.1 mph ESE8.2 kmh ESE 17.4 mph28.0 kmh 30.03 in1016.9 mb 0.00 in0.0 mm 0.00 in0.0 mm 0.00 in0.0 mm
02:30 AM 60.1°F15.6°C 54.2°F12.3°C 81% 4.0 mph S6.4 kmh S 9.8 mph15.8 kmh 30.04 in1017.3 mb 0.00 in0.0 mm 0.00 in0.0 mm 0.00 in0.0 mm
02:45 AM 59.9°F15.5°C 54.1°F12.3°C 81% 4.7 mph ESE7.6 kmh ESE 12.1 mph19.5 kmh 30.04 in1017.3 mb 0.00 in0.0 mm 0.00 in0.0 mm 0.00 in0.0 mm
03:00 AM 59.9°F15.5°C 54.1°F12.3°C 81% 4.1 mph NE6.6 kmh NE 13.6 mph21.9 kmh 30.04 in1017.3 mb 0.00 in0.0 mm 0.00 in0.0 mm 0.00 in0.0 mm
03:15 AM 59.7°F15.4°C 54.2°F12.3°C 82% 4.0 mph SSE6.4 kmh SSE 11.4 mph18.3 kmh 30.04 in1017.3 mb 0.00 in0.0 mm 0.00 in0.0 mm 0.00 in0.0 mm
03:30 AM 59.5°F15.3°C 54.1°F12.3°C 82% 4.2 mph S6.8 kmh S 17.4 mph28.0 kmh 30.04 in1017.3 mb 0.00 in0.0 mm 0.00 in0.0 mm 0.00 in0.0 mm
03:45 AM 59.5°F15.3°C 54.1°F12.3°C 82% 4.5 mph SSE7.2 kmh SSE 15.2 mph24.5 kmh 30.04 in1017.3 mb 0.00 in0.0 mm 0.00 in0.0 mm 0.00 in0.0 mm
04:00 AM 59.4°F15.2°C 54.2°F12.3°C 83% 3.8 mph SSE6.1 kmh SSE 10.7 mph17.2 kmh 30.04 in1017.3 mb 0.00 in0.0 mm 0.00 in0.0 mm 0.00 in0.0 mm
04:15 AM 59.0°F15.0°C 53.9°F12.2°C 83% 3.2 mph S5.1 kmh S 10.7 mph17.2 kmh 30.04 in1017.3 mb 0.00 in0.0 mm 0.00 in0.0 mm 0.00 in0.0 mm
04:30 AM 59.0°F15.0°C 53.9°F12.2°C 83% 3.7 mph SE6.0 kmh SE 11.4 mph18.3 kmh 30.03 in1016.9 mb 0.00 in0.0 mm 0.00 in0.0 mm 0.00 in0.0 mm
04:45 AM 58.8°F14.9°C 54.0°F12.2°C 84% 2.8 mph SSE4.5 kmh SSE 8.3 mph13.4 kmh 30.03 in1016.9 mb 0.00 in0.0 mm 0.00 in0.0 mm 0.00 in0.0 mm
05:00 AM 58.6°F14.8°C 53.8°F12.1°C 84% 2.6 mph SE4.2 kmh SE 9.8 mph15.8 kmh 30.04 in1017.3 mb 0.00 in0.0 mm 0.00 in0.0 mm 0.00 in0.0 mm
05:15 AM 58.1°F14.5°C 53.3°F11.8°C 84% 1.7 mph SE2.7 kmh SE 6.9 mph11.1 kmh 30.03 in1016.9 mb 0.00 in0.0 mm 0.00 in0.0 mm 0.00 in0.0 mm
05:30 AM 57.9°F14.4°C 53.1°F11.7°C 84% 1.5 mph SSE2.4 kmh SSE 7.6 mph12.2 kmh 30.04 in1017.3 mb 0.00 in0.0 mm 0.00 in0.0 mm 0.00 in0.0 mm
05:45 AM 57.7°F14.3°C 52.9°F11.6°C 84% 1.9 mph S3.1 kmh S 6.9 mph11.1 kmh 30.04 in1017.3 mb 0.00 in0.0 mm 0.00 in0.0 mm 0.00 in0.0 mm
06:00 AM 57.7°F14.3°C 52.9°F11.6°C 84% 1.4 mph SSE2.3 kmh SSE 6.9 mph11.1 kmh 30.04 in1017.3 mb 0.00 in0.0 mm 0.00 in0.0 mm 0.00 in0.0 mm
06:15 AM 59.5°F15.3°C 54.4°F12.4°C 83% 1.8 mph SE2.9 kmh SE 7.6 mph12.2 kmh 30.05 in1017.6 mb 0.00 in0.0 mm 0.00 in0.0 mm 0.00 in0.0 mm
06:30 AM 61.5°F16.4°C 54.3°F12.4°C 77% 1.5 mph SE2.4 kmh SE 6.9 mph11.1 kmh 30.05 in1017.6 mb 0.05 in1.3 mm 0.20 in5.1 mm 0.05 in1.3 mm
06:45 AM 64.4°F18.0°C 54.4°F12.4°C 70% 1.0 mph SE1.6 kmh SE 5.4 mph8.7 kmh 30.05 in1017.6 mb 0.05 in1.3 mm 0.00 in0.0 mm 0.05 in1.3 mm
07:00 AM 65.1°F18.4°C 53.9°F12.2°C 67% 1.0 mph ESE1.6 kmh ESE 6.0 mph9.7 kmh 30.06 in1017.9 mb 0.05 in1.3 mm 0.00 in0.0 mm 0.05 in1.3 mm
07:15 AM 61.7°F16.5°C 52.6°F11.4°C 72% 2.1 mph E3.4 kmh E 6.9 mph11.1 kmh 30.05 in1017.6 mb 0.05 in1.3 mm 0.00 in0.0 mm 0.05 in1.3 mm
07:30 AM 61.9°F16.6°C 53.1°F11.7°C 73% 1.9 mph SSE3.1 kmh SSE 6.0 mph9.7 kmh 30.05 in1017.6 mb 0.00 in0.0 mm 0.00 in0.0 mm 0.05 in1.3 mm
07:45 AM 63.9°F17.7°C 53.9°F12.2°C 70% 2.7 mph ESE4.3 kmh ESE 9.2 mph14.8 kmh 30.04 in1017.3 mb 0.00 in0.0 mm 0.00 in0.0 mm 0.05 in1.3 mm
08:00 AM 65.8°F18.8°C 54.6°F12.6°C 67% 2.6 mph SE4.2 kmh SE 9.2 mph14.8 kmh 30.04 in1017.3 mb 0.00 in0.0 mm 0.00 in0.0 mm 0.05 in1.3 mm
08:15 AM 70.3°F21.3°C 54.4°F12.4°C 57% 2.8 mph SE4.5 kmh SE 9.2 mph14.8 kmh 30.04 in1017.3 mb 0.00 in0.0 mm 0.00 in0.0 mm 0.05 in1.3 mm
08:30 AM 72.7°F22.6°C 54.6°F12.6°C 53% 2.1 mph SE3.4 kmh SE 6.0 mph9.7 kmh 30.04 in1017.3 mb 0.00 in0.0 mm 0.00 in0.0 mm 0.05 in1.3 mm
08:45 AM 74.5°F23.6°C 55.2°F12.9°C 51% 2.1 mph SSE3.4 kmh SSE 5.4 mph8.7 kmh 30.04 in1017.3 mb 0.00 in0.0 mm 0.00 in0.0 mm 0.05 in1.3 mm
09:00 AM 75.9°F24.4°C 54.9°F12.7°C 48% 2.8 mph ESE4.5 kmh ESE 7.6 mph12.2 kmh 30.04 in1017.3 mb 0.00 in0.0 mm 0.00 in0.0 mm 0.05 in1.3 mm
09:15 AM 76.6°F24.8°C 54.3°F12.4°C 46% 2.2 mph E3.5 kmh E 6.9 mph11.1 kmh 30.04 in1017.3 mb 0.00 in0.0 mm 0.00 in0.0 mm 0.05 in1.3 mm
09:30 AM 78.4°F25.8°C 54.8°F12.7°C 44% 2.1 mph SE3.4 kmh SE 5.4 mph8.7 kmh 30.04 in1017.3 mb 0.00 in0.0 mm 0.00 in0.0 mm 0.05 in1.3 mm
09:45 AM 79.0°F26.1°C 54.0°F12.2°C 42% 2.1 mph SE3.4 kmh SE 6.9 mph11.1 kmh 30.04 in1017.3 mb 0.00 in0.0 mm 0.00 in0.0 mm 0.05 in1.3 mm
10:00 AM 80.2°F26.8°C 53.1°F11.7°C 39% 2.2 mph SE3.5 kmh SE 6.9 mph11.1 kmh 30.04 in1017.3 mb 0.00 in0.0 mm 0.00 in0.0 mm 0.05 in1.3 mm
10:15 AM 80.1°F26.7°C 53.6°F12.0°C 40% 2.9 mph SSE4.7 kmh SSE 8.3 mph13.4 kmh 30.03 in1016.9 mb 0.00 in0.0 mm 0.00 in0.0 mm 0.05 in1.3 mm
10:30 AM 81.7°F27.6°C 52.2°F11.2°C 36% 2.4 mph SE3.9 kmh SE 6.0 mph9.7 kmh 30.03 in1016.9 mb 0.00 in0.0 mm 0.00 in0.0 mm 0.05 in1.3 mm
10:45 AM 81.5°F27.5°C 51.3°F10.7°C 35% 2.9 mph SE4.7 kmh SE 7.6 mph12.2 kmh 30.02 in1016.6 mb 0.00 in0.0 mm 0.00 in0.0 mm 0.05 in1.3 mm
11:00 AM 81.7°F27.6°C 51.4°F10.8°C 35% 2.8 mph SE4.5 kmh SE 8.3 mph13.4 kmh 30.02 in1016.6 mb 0.00 in0.0 mm 0.00 in0.0 mm 0.05 in1.3 mm
11:15 AM 82.6°F28.1°C 53.0°F11.7°C 36% 2.8 mph SE4.5 kmh SE 6.9 mph11.1 kmh 30.02 in1016.6 mb 0.00 in0.0 mm 0.00 in0.0 mm 0.05 in1.3 mm
11:30 AM 82.8°F28.2°C 53.1°F11.7°C 36% 2.9 mph ESE4.7 kmh ESE 9.8 mph15.8 kmh 30.02 in1016.6 mb 0.00 in0.0 mm 0.00 in0.0 mm 0.05 in1.3 mm
11:45 AM 83.3°F28.5°C 53.6°F12.0°C 36% 3.1 mph NE5.0 kmh NE 9.8 mph15.8 kmh 30.01 in1016.3 mb 0.00 in0.0 mm 0.00 in0.0 mm 0.05 in1.3 mm
12:00 PM 83.5°F28.6°C 53.8°F12.1°C 36% 3.5 mph SE5.6 kmh SE 9.2 mph14.8 kmh 30.00 in1015.9 mb 0.00 in0.0 mm 0.00 in0.0 mm 0.05 in1.3 mm
12:15 PM 83.8°F28.8°C 53.3°F11.8°C 35% 3.5 mph SW5.6 kmh SW 13.0 mph20.9 kmh 29.99 in1015.6 mb 0.00 in0.0 mm 0.00 in0.0 mm 0.05 in1.3 mm
12:30 PM 84.9°F29.4°C 53.5°F11.9°C 34% 3.3 mph SE5.3 kmh SE 9.2 mph14.8 kmh 29.99 in1015.6 mb 0.00 in0.0 mm 0.00 in0.0 mm 0.05 in1.3 mm
12:45 PM 85.8°F29.9°C 53.4°F11.9°C 33% 3.4 mph SSE5.5 kmh SSE 8.3 mph13.4 kmh 29.99 in1015.6 mb 0.00 in0.0 mm 0.00 in0.0 mm 0.05 in1.3 mm
01:00 PM 86.7°F30.4°C 52.5°F11.4°C 31% 2.9 mph SE4.7 kmh SE 9.2 mph14.8 kmh 29.98 in1015.2 mb 0.00 in0.0 mm 0.00 in0.0 mm 0.05 in1.3 mm
01:15 PM 85.8°F29.9°C 53.4°F11.9°C 33% 3.4 mph ESE5.5 kmh ESE 9.8 mph15.8 kmh 29.98 in1015.2 mb 0.00 in0.0 mm 0.00 in0.0 mm 0.05 in1.3 mm
01:30 PM 86.2°F30.1°C 52.9°F11.6°C 32% 4.3 mph SSE6.9 kmh SSE 10.7 mph17.2 kmh 29.97 in1014.9 mb 0.00 in0.0 mm 0.00 in0.0 mm 0.05 in1.3 mm
01:45 PM 86.9°F30.5°C 53.5°F11.9°C 32% 3.7 mph SE6.0 kmh SE 11.4 mph18.3 kmh 29.97 in1014.9 mb 0.00 in0.0 mm 0.00 in0.0 mm 0.05 in1.3 mm
02:00 PM 88.0°F31.1°C 51.8°F11.0°C 29% 3.5 mph SSE5.6 kmh SSE 12.1 mph19.5 kmh 29.97 in1014.9 mb 0.00 in0.0 mm 0.00 in0.0 mm 0.05 in1.3 mm
02:15 PM 87.1°F30.6°C 53.7°F12.1°C 32% 3.5 mph SSE5.6 kmh SSE 9.2 mph14.8 kmh 29.97 in1014.9 mb 0.00 in0.0 mm 0.00 in0.0 mm 0.05 in1.3 mm
02:30 PM 87.4°F30.8°C 53.1°F11.7°C 31% 3.9 mph S6.3 kmh S 13.0 mph20.9 kmh 29.96 in1014.6 mb 0.00 in0.0 mm 0.00 in0.0 mm 0.05 in1.3 mm
02:45 PM 87.6°F30.9°C 52.4°F11.3°C 30% 3.9 mph SE6.3 kmh SE 10.7 mph17.2 kmh 29.95 in1014.2 mb 0.00 in0.0 mm 0.00 in0.0 mm 0.05 in1.3 mm
03:00 PM 88.0°F31.1°C 52.7°F11.5°C 30% 3.6 mph E5.8 kmh E 9.2 mph14.8 kmh 29.95 in1014.2 mb 0.00 in0.0 mm 0.00 in0.0 mm 0.05 in1.3 mm
03:15 PM 87.1°F30.6°C 52.8°F11.6°C 31% 4.1 mph SE6.6 kmh SE 12.1 mph19.5 kmh 29.95 in1014.2 mb 0.00 in0.0 mm 0.00 in0.0 mm 0.05 in1.3 mm
03:30 PM 86.7°F30.4°C 54.2°F12.3°C 33% 4.3 mph E6.9 kmh E 12.1 mph19.5 kmh 29.94 in1013.9 mb 0.00 in0.0 mm 0.00 in0.0 mm 0.05 in1.3 mm
03:45 PM 86.5°F30.3°C 54.1°F12.3°C 33% 4.6 mph SSE7.4 kmh SSE 14.5 mph23.3 kmh 29.94 in1013.9 mb 0.00 in0.0 mm 0.00 in0.0 mm 0.05 in1.3 mm
04:00 PM 86.0°F30.0°C 53.6°F12.0°C 33% 4.4 mph SE7.1 kmh SE 10.7 mph17.2 kmh 29.93 in1013.5 mb 0.00 in0.0 mm 0.00 in0.0 mm 0.05 in1.3 mm
04:15 PM 86.4°F30.2°C 54.7°F12.6°C 34% 3.9 mph SE6.3 kmh SE 9.2 mph14.8 kmh 29.93 in1013.5 mb 0.00 in0.0 mm 0.00 in0.0 mm 0.05 in1.3 mm
04:30 PM 84.9°F29.4°C 54.3°F12.4°C 35% 4.3 mph SE6.9 kmh SE 12.1 mph19.5 kmh 29.92 in1013.2 mb 0.00 in0.0 mm 0.00 in0.0 mm 0.05 in1.3 mm
04:45 PM 84.4°F29.1°C 53.8°F12.1°C 35% 4.5 mph SSE7.2 kmh SSE 12.1 mph19.5 kmh 29.92 in1013.2 mb 0.00 in0.0 mm 0.00 in0.0 mm 0.05 in1.3 mm
05:00 PM 83.7°F28.7°C 54.7°F12.6°C 37% 4.0 mph SE6.4 kmh SE 13.6 mph21.9 kmh 29.92 in1013.2 mb 0.00 in0.0 mm 0.00 in0.0 mm 0.05 in1.3 mm
05:15 PM 82.9°F28.3°C 54.0°F12.2°C 37% 4.2 mph SE6.8 kmh SE 14.5 mph23.3 kmh 29.92 in1013.2 mb 0.00 in0.0 mm 0.00 in0.0 mm 0.05 in1.3 mm
05:30 PM 82.8°F28.2°C 53.9°F12.2°C 37% 3.8 mph SSE6.1 kmh SSE 15.9 mph25.6 kmh 29.92 in1013.2 mb 0.00 in0.0 mm 0.00 in0.0 mm 0.05 in1.3 mm
05:45 PM 81.5°F27.5°C 52.0°F11.1°C 36% 3.8 mph ESE6.1 kmh ESE 13.6 mph21.9 kmh 29.92 in1013.2 mb 0.00 in0.0 mm 0.00 in0.0 mm 0.05 in1.3 mm
06:00 PM 79.9°F26.6°C 53.4°F11.9°C 40% 3.9 mph SE6.3 kmh SE 11.4 mph18.3 kmh 29.93 in1013.5 mb 0.00 in0.0 mm 0.00 in0.0 mm 0.05 in1.3 mm
06:15 PM 78.4°F25.8°C 54.1°F12.3°C 43% 3.9 mph SSE6.3 kmh SSE 9.8 mph15.8 kmh 29.93 in1013.5 mb 0.00 in0.0 mm 0.00 in0.0 mm 0.05 in1.3 mm
06:30 PM 75.2°F24.0°C 53.0°F11.7°C 46% 2.9 mph SSE4.7 kmh SSE 8.3 mph13.4 kmh 29.94 in1013.9 mb 0.00 in0.0 mm 0.00 in0.0 mm 0.05 in1.3 mm
06:45 PM 73.0°F22.8°C 53.3°F11.8°C 50% 3.2 mph E5.1 kmh E 12.1 mph19.5 kmh 29.94 in1013.9 mb 0.00 in0.0 mm 0.00 in0.0 mm 0.05 in1.3 mm
07:00 PM 71.4°F21.9°C 53.4°F11.9°C 53% 3.6 mph ESE5.8 kmh ESE 10.7 mph17.2 kmh 29.94 in1013.9 mb 0.00 in0.0 mm 0.00 in0.0 mm 0.05 in1.3 mm
07:15 PM 70.3°F21.3°C 52.9°F11.6°C 54% 2.2 mph S3.5 kmh S 6.9 mph11.1 kmh 29.95 in1014.2 mb 0.00 in0.0 mm 0.00 in0.0 mm 0.05 in1.3 mm
07:30 PM 69.4°F20.8°C 53.1°F11.7°C 56% 2.3 mph SE3.7 kmh SE 9.8 mph15.8 kmh 29.95 in1014.2 mb 0.00 in0.0 mm 0.00 in0.0 mm 0.05 in1.3 mm
07:45 PM 68.7°F20.4°C 53.4°F11.9°C 58% 2.5 mph S4.0 kmh S 8.3 mph13.4 kmh 29.96 in1014.6 mb 0.00 in0.0 mm 0.00 in0.0 mm 0.05 in1.3 mm
08:00 PM 67.8°F19.9°C 53.9°F12.2°C 61% 1.9 mph E3.1 kmh E 7.6 mph12.2 kmh 29.96 in1014.6 mb 0.00 in0.0 mm 0.00 in0.0 mm 0.05 in1.3 mm
08:15 PM 66.9°F19.4°C 53.9°F12.2°C 63% 1.6 mph SE2.6 kmh SE 4.5 mph7.2 kmh 29.96 in1014.6 mb 0.00 in0.0 mm 0.00 in0.0 mm 0.05 in1.3 mm
08:30 PM 66.2°F19.0°C 53.7°F12.1°C 64% 1.9 mph SE3.1 kmh SE 6.0 mph9.7 kmh 29.96 in1014.6 mb 0.00 in0.0 mm 0.00 in0.0 mm 0.05 in1.3 mm
08:45 PM 65.5°F18.6°C 53.8°F12.1°C 66% 1.8 mph S2.9 kmh S 6.0 mph9.7 kmh 29.96 in1014.6 mb 0.00 in0.0 mm 0.00 in0.0 mm 0.05 in1.3 mm
09:00 PM 64.8°F18.2°C 53.2°F11.8°C 66% 1.8 mph SSE2.9 kmh SSE 6.0 mph9.7 kmh 29.96 in1014.6 mb 0.00 in0.0 mm 0.00 in0.0 mm 0.05 in1.3 mm
09:15 PM 64.2°F17.9°C 53.1°F11.7°C 67% 1.5 mph NE2.4 kmh NE 6.0 mph9.7 kmh 29.96 in1014.6 mb 0.00 in0.0 mm 0.00 in0.0 mm 0.05 in1.3 mm
09:30 PM 63.7°F17.6°C 53.3°F11.8°C 69% 2.2 mph E3.5 kmh E 6.0 mph9.7 kmh 29.96 in1014.6 mb 0.00 in0.0 mm 0.00 in0.0 mm 0.05 in1.3 mm
09:45 PM 63.1°F17.3°C 53.2°F11.8°C 70% 2.2 mph E3.5 kmh E 8.3 mph13.4 kmh 29.96 in1014.6 mb 0.00 in0.0 mm 0.00 in0.0 mm 0.05 in1.3 mm
10:00 PM 62.6°F17.0°C 53.1°F11.7°C 71% 1.8 mph ESE2.9 kmh ESE 6.0 mph9.7 kmh 29.95 in1014.2 mb 0.00 in0.0 mm 0.00 in0.0 mm 0.05 in1.3 mm
10:15 PM 62.2°F16.8°C 53.1°F11.7°C 72% 2.0 mph SSE3.2 kmh SSE 6.9 mph11.1 kmh 29.96 in1014.6 mb 0.00 in0.0 mm 0.00 in0.0 mm 0.05 in1.3 mm
10:30 PM 61.7°F16.5°C 53.0°F11.7°C 73% 1.7 mph SW2.7 kmh SW 6.9 mph11.1 kmh 29.95 in1014.2 mb 0.00 in0.0 mm 0.00 in0.0 mm 0.05 in1.3 mm
10:45 PM 61.3°F16.3°C 52.6°F11.4°C 73% 1.1 mph ESE1.8 kmh ESE 6.0 mph9.7 kmh 29.95 in1014.2 mb 0.00 in0.0 mm 0.00 in0.0 mm 0.05 in1.3 mm
11:00 PM 61.3°F16.3°C 53.0°F11.7°C 74% 2.3 mph SSE3.7 kmh SSE 6.0 mph9.7 kmh 29.94 in1013.9 mb 0.00 in0.0 mm 0.00 in0.0 mm 0.05 in1.3 mm
11:15 PM 61.0°F16.1°C 52.6°F11.4°C 74% 1.9 mph S3.1 kmh S 6.9 mph11.1 kmh 29.94 in1013.9 mb 0.00 in0.0 mm 0.00 in0.0 mm 0.05 in1.3 mm
11:30 PM 60.8°F16.0°C 52.5°F11.4°C 74% 1.7 mph SE2.7 kmh SE 6.0 mph9.7 kmh 29.93 in1013.5 mb 0.00 in0.0 mm 0.00 in0.0 mm 0.05 in1.3 mm
11:45 PM 60.4°F15.8°C 52.9°F11.6°C 76% 1.2 mph SE1.9 kmh SE 6.0 mph9.7 kmh 29.93 in1013.5 mb 0.00 in0.0 mm 0.00 in0.0 mm 0.05 in1.3 mm